sensor_id;sensor_type;location;lat;lon;timestamp;pressure;altitude;pressure_sealevel;temperature;humidity
76987;BME280;65922;50.086;8.598;2023-01-13T00:00:49;100040;;;9.4;84.7
76987;BME280;65922;50.086;8.598;2023-01-13T00:01:49;100040;;;9.4;84.5
76987;BME280;65922;50.086;8.598;2023-01-13T00:02:49;100040;;;9.4;84.5
76987;BME280;65922;50.086;8.598;2023-01-13T00:03:49;100040;;;9.3;84.7
76987;BME280;65922;50.086;8.598;2023-01-13T00:04:49;100030;;;9.3;84.8
76987;BME280;65922;50.086;8.598;2023-01-13T00:05:49;100030;;;9.4;84.6
76987;BME280;65922;50.086;8.598;2023-01-13T00:06:49;100030;;;9.4;84.5
76987;BME280;65922;50.086;8.598;2023-01-13T00:07:49;100030;;;9.4;84.8
76987;BME280;65922;50.086;8.598;2023-01-13T00:08:49;100040;;;9.4;84.8
76987;BME280;65922;50.086;8.598;2023-01-13T00:09:49;100020;;;9.3;85.1
76987;BME280;65922;50.086;8.598;2023-01-13T00:10:49;100030;;;9.3;84.9
76987;BME280;65922;50.086;8.598;2023-01-13T00:11:49;100030;;;9.3;85.2
76987;BME280;65922;50.086;8.598;2023-01-13T00:12:49;100030;;;9.3;85.3
76987;BME280;65922;50.086;8.598;2023-01-13T00:13:49;100020;;;9.3;85.4
76987;BME280;65922;50.086;8.598;2023-01-13T00:14:49;100020;;;9.3;85.4
76987;BME280;65922;50.086;8.598;2023-01-13T00:15:54;100020;;;9.3;85.4
76987;BME280;65922;50.086;8.598;2023-01-13T00:16:49;100030;;;9.2;85.6
76987;BME280;65922;50.086;8.598;2023-01-13T00:17:49;100020;;;9.3;85.5
76987;BME280;65922;50.086;8.598;2023-01-13T00:18:49;100020;;;9.2;85.8
76987;BME280;65922;50.086;8.598;2023-01-13T00:19:49;100020;;;9.2;85.9
76987;BME280;65922;50.086;8.598;2023-01-13T00:20:56;100020;;;9.2;86
76987;BME280;65922;50.086;8.598;2023-01-13T00:21:49;100020;;;9.2;86
76987;BME280;65922;50.086;8.598;2023-01-13T00:22:49;100020;;;9.2;86.2
76987;BME280;65922;50.086;8.598;2023-01-13T00:23:49;100020;;;9.1;86.6
76987;BME280;65922;50.086;8.598;2023-01-13T00:24:49;100020;;;9.2;86.3
76987;BME280;65922;50.086;8.598;2023-01-13T00:25:49;100020;;;9.2;86
76987;BME280;65922;50.086;8.598;2023-01-13T00:26:49;100020;;;9.2;86
76987;BME280;65922;50.086;8.598;2023-01-13T00:27:49;100020;;;9.2;86.1
76987;BME280;65922;50.086;8.598;2023-01-13T00:28:49;100020;;;9.2;86
76987;BME280;65922;50.086;8.598;2023-01-13T00:29:49;100000;;;9.2;86.1
76987;BME280;65922;50.086;8.598;2023-01-13T00:30:49;100000;;;9.3;86
76987;BME280;65922;50.086;8.598;2023-01-13T00:31:49;100000;;;9.2;86.1
76987;BME280;65922;50.086;8.598;2023-01-13T00:32:49;100010;;;9.3;86
76987;BME280;65922;50.086;8.598;2023-01-13T00:33:49;99990;;;9.3;85.9
76987;BME280;65922;50.086;8.598;2023-01-13T00:34:49;100000;;;9.3;85.8
76987;BME280;65922;50.086;8.598;2023-01-13T00:35:54;100000;;;9.3;85.6
76987;BME280;65922;50.086;8.598;2023-01-13T00:36:49;100000;;;9.3;85.7
76987;BME280;65922;50.086;8.598;2023-01-13T00:37:49;100000;;;9.2;86
76987;BME280;65922;50.086;8.598;2023-01-13T00:38:49;99990;;;9.2;85.8
76987;BME280;65922;50.086;8.598;2023-01-13T00:39:49;100000;;;9.3;85.6
76987;BME280;65922;50.086;8.598;2023-01-13T00:40:56;100000;;;9.3;85.5
76987;BME280;65922;50.086;8.598;2023-01-13T00:41:49;100000;;;9.3;85.4
76987;BME280;65922;50.086;8.598;2023-01-13T00:42:49;99990;;;9.3;85.7
76987;BME280;65922;50.086;8.598;2023-01-13T00:43:49;99980;;;9.3;85.6
76987;BME280;65922;50.086;8.598;2023-01-13T00:44:49;100000;;;9.4;85
76987;BME280;65922;50.086;8.598;2023-01-13T00:45:49;99990;;;9.4;85
76987;BME280;65922;50.086;8.598;2023-01-13T00:46:49;99990;;;9.4;85
76987;BME280;65922;50.086;8.598;2023-01-13T00:47:49;99970;;;9.4;84.9
76987;BME280;65922;50.086;8.598;2023-01-13T00:48:49;99970;;;9.4;84.6
76987;BME280;65922;50.086;8.598;2023-01-13T00:49:49;99990;;;9.4;84.6
76987;BME280;65922;50.086;8.598;2023-01-13T00:50:53;99990;;;9.4;84.9
76987;BME280;65922;50.086;8.598;2023-01-13T00:51:49;99980;;;9.4;84.9
76987;BME280;65922;50.086;8.598;2023-01-13T00:52:49;99980;;;9.4;84.8
76987;BME280;65922;50.086;8.598;2023-01-13T00:53:49;99970;;;9.5;84.3
76987;BME280;65922;50.086;8.598;2023-01-13T00:54:49;99960;;;9.5;84.2
76987;BME280;65922;50.086;8.598;2023-01-13T00:55:49;99980;;;9.5;84
76987;BME280;65922;50.086;8.598;2023-01-13T00:56:49;99980;;;9.4;84.5
76987;BME280;65922;50.086;8.598;2023-01-13T00:57:49;99970;;;9.4;84.6
76987;BME280;65922;50.086;8.598;2023-01-13T00:58:49;99960;;;9.4;84.7
76987;BME280;65922;50.086;8.598;2023-01-13T00:59:49;99970;;;9.5;84.5
76987;BME280;65922;50.086;8.598;2023-01-13T01:00:49;99970;;;9.5;84.5
76987;BME280;65922;50.086;8.598;2023-01-13T01:01:49;99980;;;9.5;84.3
76987;BME280;65922;50.086;8.598;2023-01-13T01:02:49;99970;;;9.5;84.5
76987;BME280;65922;50.086;8.598;2023-01-13T01:03:50;99960;;;9.5;84.5
76987;BME280;65922;50.086;8.598;2023-01-13T01:04:49;99960;;;9.5;84.1
76987;BME280;65922;50.086;8.598;2023-01-13T01:05:49;99960;;;9.5;84.3
76987;BME280;65922;50.086;8.598;2023-01-13T01:06:49;99960;;;9.5;84.6
76987;BME280;65922;50.086;8.598;2023-01-13T01:07:49;99960;;;9.5;84.4
76987;BME280;65922;50.086;8.598;2023-01-13T01:08:49;99960;;;9.5;84
76987;BME280;65922;50.086;8.598;2023-01-13T01:09:49;99950;;;9.5;84.1
76987;BME280;65922;50.086;8.598;2023-01-13T01:10:49;99960;;;9.5;84.1
76987;BME280;65922;50.086;8.598;2023-01-13T01:11:49;99960;;;9.5;84
76987;BME280;65922;50.086;8.598;2023-01-13T01:12:49;99960;;;9.6;83.9
76987;BME280;65922;50.086;8.598;2023-01-13T01:13:49;99960;;;9.5;84
76987;BME280;65922;50.086;8.598;2023-01-13T01:14:49;99970;;;9.5;84.2
76987;BME280;65922;50.086;8.598;2023-01-13T01:15:49;99960;;;9.5;84.1
76987;BME280;65922;50.086;8.598;2023-01-13T01:16:49;99970;;;9.5;84
76987;BME280;65922;50.086;8.598;2023-01-13T01:17:49;99960;;;9.5;84.1
76987;BME280;65922;50.086;8.598;2023-01-13T01:18:49;99970;;;9.6;84
76987;BME280;65922;50.086;8.598;2023-01-13T01:19:49;99960;;;9.6;83.7
76987;BME280;65922;50.086;8.598;2023-01-13T01:20:49;99970;;;9.5;84.3
76987;BME280;65922;50.086;8.598;2023-01-13T01:21:49;99970;;;9.6;84
76987;BME280;65922;50.086;8.598;2023-01-13T01:22:49;99970;;;9.5;84.2
76987;BME280;65922;50.086;8.598;2023-01-13T01:23:49;99980;;;9.5;84.5
76987;BME280;65922;50.086;8.598;2023-01-13T01:24:49;99980;;;9.5;84.7
76987;BME280;65922;50.086;8.598;2023-01-13T01:25:49;99980;;;9.4;85.2
76987;BME280;65922;50.086;8.598;2023-01-13T01:26:49;99980;;;9.4;85.4
76987;BME280;65922;50.086;8.598;2023-01-13T01:27:49;99980;;;9.4;85.4
76987;BME280;65922;50.086;8.598;2023-01-13T01:28:49;99980;;;9.4;85.3
76987;BME280;65922;50.086;8.598;2023-01-13T01:29:49;99990;;;9.3;85.7
76987;BME280;65922;50.086;8.598;2023-01-13T01:30:49;99980;;;9.4;85.3
76987;BME280;65922;50.086;8.598;2023-01-13T01:31:49;100000;;;9.4;85.6
76987;BME280;65922;50.086;8.598;2023-01-13T01:32:49;99970;;;9.5;84.7
76987;BME280;65922;50.086;8.598;2023-01-13T01:33:49;99970;;;9.5;84.5
76987;BME280;65922;50.086;8.598;2023-01-13T01:34:49;99970;;;9.5;84.6
76987;BME280;65922;50.086;8.598;2023-01-13T01:35:49;99980;;;9.5;84.7
76987;BME280;65922;50.086;8.598;2023-01-13T01:36:49;99980;;;9.5;84.7
76987;BME280;65922;50.086;8.598;2023-01-13T01:37:49;99980;;;9.5;84.9
76987;BME280;65922;50.086;8.598;2023-01-13T01:38:49;99990;;;9.5;84.9
76987;BME280;65922;50.086;8.598;2023-01-13T01:39:49;99990;;;9.5;85
76987;BME280;65922;50.086;8.598;2023-01-13T01:40:49;100000;;;9.5;85.1
76987;BME280;65922;50.086;8.598;2023-01-13T01:41:49;99980;;;9.4;85.4
76987;BME280;65922;50.086;8.598;2023-01-13T01:42:49;99990;;;9.4;85.6
76987;BME280;65922;50.086;8.598;2023-01-13T01:43:50;99980;;;9.4;85.4
76987;BME280;65922;50.086;8.598;2023-01-13T01:44:54;99980;;;9.4;85.5
76987;BME280;65922;50.086;8.598;2023-01-13T01:45:49;99980;;;9.4;85.7
76987;BME280;65922;50.086;8.598;2023-01-13T01:46:49;99990;;;9.4;85.7
76987;BME280;65922;50.086;8.598;2023-01-13T01:47:50;99990;;;9.4;85.6
76987;BME280;65922;50.086;8.598;2023-01-13T01:48:49;99980;;;9.4;85.6
76987;BME280;65922;50.086;8.598;2023-01-13T01:49:49;99980;;;9.4;85.4
76987;BME280;65922;50.086;8.598;2023-01-13T01:50:49;99980;;;9.5;85.2
76987;BME280;65922;50.086;8.598;2023-01-13T01:51:51;99980;;;9.4;85.5
76987;BME280;65922;50.086;8.598;2023-01-13T01:52:50;99970;;;9.5;85.4
76987;BME280;65922;50.086;8.598;2023-01-13T01:53:49;99980;;;9.4;85.6
76987;BME280;65922;50.086;8.598;2023-01-13T01:54:49;99980;;;9.4;85.7
76987;BME280;65922;50.086;8.598;2023-01-13T01:55:49;99980;;;9.4;85.8
76987;BME280;65922;50.086;8.598;2023-01-13T01:56:49;99970;;;9.4;85.9
76987;BME280;65922;50.086;8.598;2023-01-13T01:57:50;99970;;;9.4;86.3
76987;BME280;65922;50.086;8.598;2023-01-13T01:58:49;99970;;;9.4;85.9
76987;BME280;65922;50.086;8.598;2023-01-13T01:59:49;99980;;;9.4;86
76987;BME280;65922;50.086;8.598;2023-01-13T02:00:49;99960;;;9.4;85.9
76987;BME280;65922;50.086;8.598;2023-01-13T02:01:49;99970;;;9.5;85.1
76987;BME280;65922;50.086;8.598;2023-01-13T02:02:49;99970;;;9.5;84.9
76987;BME280;65922;50.086;8.598;2023-01-13T02:03:50;99960;;;9.6;84.5
76987;BME280;65922;50.086;8.598;2023-01-13T02:04:50;99960;;;9.6;84.3
76987;BME280;65922;50.086;8.598;2023-01-13T02:05:49;99960;;;9.6;84.5
76987;BME280;65922;50.086;8.598;2023-01-13T02:06:49;99970;;;9.6;84.3
76987;BME280;65922;50.086;8.598;2023-01-13T02:07:50;99960;;;9.6;84.3
76987;BME280;65922;50.086;8.598;2023-01-13T02:08:49;99970;;;9.5;84.3
76987;BME280;65922;50.086;8.598;2023-01-13T02:09:49;99960;;;9.5;84.4
76987;BME280;65922;50.086;8.598;2023-01-13T02:10:49;99960;;;9.5;84.7
76987;BME280;65922;50.086;8.598;2023-01-13T02:11:49;99960;;;9.5;84.5
76987;BME280;65922;50.086;8.598;2023-01-13T02:12:49;99960;;;9.6;84.3
76987;BME280;65922;50.086;8.598;2023-01-13T02:13:49;99970;;;9.6;84.3
76987;BME280;65922;50.086;8.598;2023-01-13T02:14:49;99960;;;9.6;84.3
76987;BME280;65922;50.086;8.598;2023-01-13T02:15:51;99970;;;9.6;84.2
76987;BME280;65922;50.086;8.598;2023-01-13T02:16:53;99960;;;9.6;84.2
76987;BME280;65922;50.086;8.598;2023-01-13T02:17:58;99950;;;9.6;84.4
76987;BME280;65922;50.086;8.598;2023-01-13T02:18:52;99950;;;9.5;84.5
76987;BME280;65922;50.086;8.598;2023-01-13T02:19:57;99960;;;9.5;84.4
76987;BME280;65922;50.086;8.598;2023-01-13T02:21:26;99950;;;9.5;84.3
76987;BME280;65922;50.086;8.598;2023-01-13T02:21:57;99940;;;9.6;84.2
76987;BME280;65922;50.086;8.598;2023-01-13T02:22:55;99940;;;9.5;84.4
76987;BME280;65922;50.086;8.598;2023-01-13T02:24:10;99940;;;9.5;84.4
76987;BME280;65922;50.086;8.598;2023-01-13T02:25:54;99940;;;9.6;83.9
76987;BME280;65922;50.086;8.598;2023-01-13T02:25:57;99940;;;9.6;84.2
76987;BME280;65922;50.086;8.598;2023-01-13T02:27:03;99930;;;9.5;84.1
76987;BME280;65922;50.086;8.598;2023-01-13T02:27:53;99940;;;9.6;83.7
76987;BME280;65922;50.086;8.598;2023-01-13T02:28:54;99950;;;9.6;83.4
76987;BME280;65922;50.086;8.598;2023-01-13T02:29:53;99950;;;9.7;83.2
76987;BME280;65922;50.086;8.598;2023-01-13T02:30:50;99950;;;9.6;83.5
76987;BME280;65922;50.086;8.598;2023-01-13T02:31:49;99940;;;9.7;83.2
76987;BME280;65922;50.086;8.598;2023-01-13T02:32:51;99940;;;9.7;82.9
76987;BME280;65922;50.086;8.598;2023-01-13T02:33:51;99940;;;9.7;82.8
76987;BME280;65922;50.086;8.598;2023-01-13T02:34:51;99940;;;9.8;82.5
76987;BME280;65922;50.086;8.598;2023-01-13T02:35:49;99940;;;9.7;82.6
76987;BME280;65922;50.086;8.598;2023-01-13T02:36:50;99940;;;9.7;82.6
76987;BME280;65922;50.086;8.598;2023-01-13T02:37:49;99940;;;9.7;82.4
76987;BME280;65922;50.086;8.598;2023-01-13T02:38:50;99940;;;9.7;82.4
76987;BME280;65922;50.086;8.598;2023-01-13T02:39:50;99930;;;9.7;82.7
76987;BME280;65922;50.086;8.598;2023-01-13T02:40:49;99940;;;9.6;83.1
76987;BME280;65922;50.086;8.598;2023-01-13T02:41:50;99930;;;9.7;82.8
76987;BME280;65922;50.086;8.598;2023-01-13T02:42:50;99930;;;9.7;82.6
76987;BME280;65922;50.086;8.598;2023-01-13T02:43:49;99930;;;9.7;82.7
76987;BME280;65922;50.086;8.598;2023-01-13T02:44:50;99930;;;9.7;82.6
76987;BME280;65922;50.086;8.598;2023-01-13T02:45:49;99920;;;9.7;82.4
76987;BME280;65922;50.086;8.598;2023-01-13T02:46:50;99920;;;9.8;82
76987;BME280;65922;50.086;8.598;2023-01-13T02:47:49;99930;;;9.8;81.9
76987;BME280;65922;50.086;8.598;2023-01-13T02:48:49;99910;;;9.8;82
76987;BME280;65922;50.086;8.598;2023-01-13T02:49:49;99910;;;9.7;82.4
76987;BME280;65922;50.086;8.598;2023-01-13T02:50:52;99910;;;9.7;82
76987;BME280;65922;50.086;8.598;2023-01-13T02:51:49;99910;;;9.8;82
76987;BME280;65922;50.086;8.598;2023-01-13T02:52:49;99900;;;9.8;81.7
76987;BME280;65922;50.086;8.598;2023-01-13T02:53:49;99910;;;9.8;81.6
76987;BME280;65922;50.086;8.598;2023-01-13T02:54:51;99910;;;9.8;81.5
76987;BME280;65922;50.086;8.598;2023-01-13T02:55:50;99910;;;9.8;81.5
76987;BME280;65922;50.086;8.598;2023-01-13T02:56:49;99920;;;9.8;81.5
76987;BME280;65922;50.086;8.598;2023-01-13T02:57:49;99910;;;9.8;81.6
76987;BME280;65922;50.086;8.598;2023-01-13T02:58:49;99910;;;9.9;81.3
76987;BME280;65922;50.086;8.598;2023-01-13T02:59:49;99920;;;9.9;81.2
76987;BME280;65922;50.086;8.598;2023-01-13T03:00:49;99910;;;9.9;81.1
76987;BME280;65922;50.086;8.598;2023-01-13T03:01:49;99910;;;9.8;81.2
76987;BME280;65922;50.086;8.598;2023-01-13T03:02:49;99920;;;9.8;81.1
76987;BME280;65922;50.086;8.598;2023-01-13T03:03:49;99910;;;9.9;81.1
76987;BME280;65922;50.086;8.598;2023-01-13T03:04:50;99910;;;9.8;81.5
76987;BME280;65922;50.086;8.598;2023-01-13T03:05:50;99910;;;9.8;81.3
76987;BME280;65922;50.086;8.598;2023-01-13T03:06:50;99910;;;9.8;81.4
76987;BME280;65922;50.086;8.598;2023-01-13T03:07:55;99910;;;9.9;81.1
76987;BME280;65922;50.086;8.598;2023-01-13T03:08:49;99910;;;9.9;81.3
76987;BME280;65922;50.086;8.598;2023-01-13T03:09:50;99910;;;9.8;81.5
76987;BME280;65922;50.086;8.598;2023-01-13T03:10:52;99900;;;9.9;81.1
76987;BME280;65922;50.086;8.598;2023-01-13T03:11:50;99900;;;9.9;81.2
76987;BME280;65922;50.086;8.598;2023-01-13T03:12:51;99900;;;9.8;81.4
76987;BME280;65922;50.086;8.598;2023-01-13T03:13:56;99900;;;9.9;81.2
76987;BME280;65922;50.086;8.598;2023-01-13T03:14:49;99900;;;9.9;81.2
76987;BME280;65922;50.086;8.598;2023-01-13T03:15:52;99900;;;9.8;81.6
76987;BME280;65922;50.086;8.598;2023-01-13T03:16:56;99890;;;9.8;81.7
76987;BME280;65922;50.086;8.598;2023-01-13T03:17:52;99890;;;9.8;81.6
76987;BME280;65922;50.086;8.598;2023-01-13T03:18:49;99900;;;9.9;81.3
76987;BME280;65922;50.086;8.598;2023-01-13T03:19:52;99890;;;9.9;81
76987;BME280;65922;50.086;8.598;2023-01-13T03:20:52;99900;;;9.9;81.3
76987;BME280;65922;50.086;8.598;2023-01-13T03:21:50;99900;;;9.9;81.1
76987;BME280;65922;50.086;8.598;2023-01-13T03:22:50;99890;;;9.9;81.3
76987;BME280;65922;50.086;8.598;2023-01-13T03:23:49;99890;;;9.9;81.6
76987;BME280;65922;50.086;8.598;2023-01-13T03:24:50;99890;;;9.9;81.4
76987;BME280;65922;50.086;8.598;2023-01-13T03:25:49;99900;;;9.9;81.2
76987;BME280;65922;50.086;8.598;2023-01-13T03:26:50;99880;;;9.9;81.1
76987;BME280;65922;50.086;8.598;2023-01-13T03:27:49;99880;;;9.9;81.2
76987;BME280;65922;50.086;8.598;2023-01-13T03:28:50;99900;;;10;80.9
76987;BME280;65922;50.086;8.598;2023-01-13T03:29:49;99880;;;10;80.8
76987;BME280;65922;50.086;8.598;2023-01-13T03:30:50;99890;;;10;81
76987;BME280;65922;50.086;8.598;2023-01-13T03:31:52;99890;;;10;81
76987;BME280;65922;50.086;8.598;2023-01-13T03:32:49;99880;;;10;81.2
76987;BME280;65922;50.086;8.598;2023-01-13T03:33:50;99890;;;9.9;81.3
76987;BME280;65922;50.086;8.598;2023-01-13T03:34:50;99880;;;9.9;81.8
76987;BME280;65922;50.086;8.598;2023-01-13T03:35:49;99880;;;9.8;82.1
76987;BME280;65922;50.086;8.598;2023-01-13T03:36:50;99880;;;9.8;82.2
76987;BME280;65922;50.086;8.598;2023-01-13T03:37:49;99870;;;9.8;82.4
76987;BME280;65922;50.086;8.598;2023-01-13T03:38:50;99880;;;9.8;82.7
76987;BME280;65922;50.086;8.598;2023-01-13T03:39:50;99880;;;9.9;82.1
76987;BME280;65922;50.086;8.598;2023-01-13T03:40:49;99880;;;9.9;82
76987;BME280;65922;50.086;8.598;2023-01-13T03:41:50;99880;;;9.9;82
76987;BME280;65922;50.086;8.598;2023-01-13T03:42:49;99880;;;9.9;82
76987;BME280;65922;50.086;8.598;2023-01-13T03:43:49;99870;;;9.9;82
76987;BME280;65922;50.086;8.598;2023-01-13T03:44:50;99870;;;9.8;82.4
76987;BME280;65922;50.086;8.598;2023-01-13T03:45:50;99880;;;9.8;82.5
76987;BME280;65922;50.086;8.598;2023-01-13T03:46:51;99870;;;9.8;82.3
76987;BME280;65922;50.086;8.598;2023-01-13T03:47:50;99870;;;9.9;82.1
76987;BME280;65922;50.086;8.598;2023-01-13T03:48:49;99870;;;9.8;82.3
76987;BME280;65922;50.086;8.598;2023-01-13T03:49:51;99870;;;9.8;82.5
76987;BME280;65922;50.086;8.598;2023-01-13T03:50:49;99860;;;9.9;82
76987;BME280;65922;50.086;8.598;2023-01-13T03:51:50;99860;;;9.9;81.7
76987;BME280;65922;50.086;8.598;2023-01-13T03:52:49;99860;;;10;81.1
76987;BME280;65922;50.086;8.598;2023-01-13T03:53:50;99870;;;10;81.1
76987;BME280;65922;50.086;8.598;2023-01-13T03:54:49;99870;;;10;81.1
76987;BME280;65922;50.086;8.598;2023-01-13T03:55:49;99880;;;10;80.8
76987;BME280;65922;50.086;8.598;2023-01-13T03:56:50;99860;;;10;81.2
76987;BME280;65922;50.086;8.598;2023-01-13T03:57:49;99870;;;10;81.2
76987;BME280;65922;50.086;8.598;2023-01-13T03:58:49;99870;;;9.9;81.8
76987;BME280;65922;50.086;8.598;2023-01-13T03:59:49;99870;;;10;81.3
76987;BME280;65922;50.086;8.598;2023-01-13T04:00:49;99870;;;10;81.3
76987;BME280;65922;50.086;8.598;2023-01-13T04:01:50;99870;;;10;81.4
76987;BME280;65922;50.086;8.598;2023-01-13T04:02:50;99860;;;10;81.2
76987;BME280;65922;50.086;8.598;2023-01-13T04:03:49;99860;;;10;81.2
76987;BME280;65922;50.086;8.598;2023-01-13T04:04:50;99860;;;10;81.5
76987;BME280;65922;50.086;8.598;2023-01-13T04:05:50;99870;;;10;81.6
76987;BME280;65922;50.086;8.598;2023-01-13T04:06:49;99860;;;10;81.3
76987;BME280;65922;50.086;8.598;2023-01-13T04:07:50;99870;;;10;81.4
76987;BME280;65922;50.086;8.598;2023-01-13T04:08:50;99860;;;10;81.2
76987;BME280;65922;50.086;8.598;2023-01-13T04:09:49;99870;;;10.1;81
76987;BME280;65922;50.086;8.598;2023-01-13T04:10:50;99860;;;10;80.9
76987;BME280;65922;50.086;8.598;2023-01-13T04:11:51;99860;;;10.1;80.7
76987;BME280;65922;50.086;8.598;2023-01-13T04:12:50;99860;;;10.1;80.5
76987;BME280;65922;50.086;8.598;2023-01-13T04:13:49;99860;;;10;80.8
76987;BME280;65922;50.086;8.598;2023-01-13T04:14:49;99850;;;10;81.2
76987;BME280;65922;50.086;8.598;2023-01-13T04:15:49;99870;;;10;81.1
76987;BME280;65922;50.086;8.598;2023-01-13T04:16:49;99860;;;10;81.1
76987;BME280;65922;50.086;8.598;2023-01-13T04:17:49;99860;;;10;80.9
76987;BME280;65922;50.086;8.598;2023-01-13T04:18:49;99850;;;10.1;80.5
76987;BME280;65922;50.086;8.598;2023-01-13T04:19:49;99850;;;10.1;80.4
76987;BME280;65922;50.086;8.598;2023-01-13T04:20:49;99850;;;10;80.7
76987;BME280;65922;50.086;8.598;2023-01-13T04:21:49;99840;;;10.1;80.3
76987;BME280;65922;50.086;8.598;2023-01-13T04:22:49;99840;;;10;80.5
76987;BME280;65922;50.086;8.598;2023-01-13T04:23:49;99840;;;10;80.5
76987;BME280;65922;50.086;8.598;2023-01-13T04:24:49;99830;;;9.9;80.8
76987;BME280;65922;50.086;8.598;2023-01-13T04:25:49;99850;;;10;80.6
76987;BME280;65922;50.086;8.598;2023-01-13T04:26:49;99830;;;10.1;80.3
76987;BME280;65922;50.086;8.598;2023-01-13T04:27:49;99840;;;10;80.8
76987;BME280;65922;50.086;8.598;2023-01-13T04:28:49;99840;;;10;80.9
76987;BME280;65922;50.086;8.598;2023-01-13T04:29:49;99830;;;10;80.6
76987;BME280;65922;50.086;8.598;2023-01-13T04:30:49;99830;;;10.1;80.3
76987;BME280;65922;50.086;8.598;2023-01-13T04:31:49;99830;;;10.1;80.5
76987;BME280;65922;50.086;8.598;2023-01-13T04:32:49;99830;;;10;80.6
76987;BME280;65922;50.086;8.598;2023-01-13T04:33:49;99830;;;10;80.6
76987;BME280;65922;50.086;8.598;2023-01-13T04:34:49;99820;;;10.1;80.2
76987;BME280;65922;50.086;8.598;2023-01-13T04:35:49;99830;;;10.1;80.4
76987;BME280;65922;50.086;8.598;2023-01-13T04:36:49;99830;;;10.1;80.5
76987;BME280;65922;50.086;8.598;2023-01-13T04:37:49;99830;;;10.1;80.4
76987;BME280;65922;50.086;8.598;2023-01-13T04:38:49;99840;;;10.1;80
76987;BME280;65922;50.086;8.598;2023-01-13T04:39:49;99840;;;10.2;79.9
76987;BME280;65922;50.086;8.598;2023-01-13T04:40:49;99830;;;10.1;80.1
76987;BME280;65922;50.086;8.598;2023-01-13T04:41:49;99830;;;10.1;80.2
76987;BME280;65922;50.086;8.598;2023-01-13T04:42:49;99830;;;10.1;80.2
76987;BME280;65922;50.086;8.598;2023-01-13T04:43:49;99830;;;10.1;80.2
76987;BME280;65922;50.086;8.598;2023-01-13T04:44:49;99830;;;10.2;79.9
76987;BME280;65922;50.086;8.598;2023-01-13T04:45:49;99830;;;10.1;80.4
76987;BME280;65922;50.086;8.598;2023-01-13T04:46:49;99830;;;10.1;80.6
76987;BME280;65922;50.086;8.598;2023-01-13T04:47:49;99830;;;10;81
76987;BME280;65922;50.086;8.598;2023-01-13T04:48:49;99830;;;10.1;80.2
76987;BME280;65922;50.086;8.598;2023-01-13T04:49:49;99820;;;10.1;80.2
76987;BME280;65922;50.086;8.598;2023-01-13T04:50:49;99830;;;10.1;80.2
76987;BME280;65922;50.086;8.598;2023-01-13T04:51:49;99830;;;10.1;80
76987;BME280;65922;50.086;8.598;2023-01-13T04:52:49;99820;;;10.1;80.1
76987;BME280;65922;50.086;8.598;2023-01-13T04:53:49;99820;;;10.2;79.8
76987;BME280;65922;50.086;8.598;2023-01-13T04:54:49;99810;;;10.2;79.6
76987;BME280;65922;50.086;8.598;2023-01-13T04:55:49;99790;;;10.2;79.7
76987;BME280;65922;50.086;8.598;2023-01-13T04:56:49;99830;;;10.2;79.3
76987;BME280;65922;50.086;8.598;2023-01-13T04:57:49;99820;;;10.3;79.4
76987;BME280;65922;50.086;8.598;2023-01-13T04:58:49;99820;;;10.2;79.7
76987;BME280;65922;50.086;8.598;2023-01-13T04:59:49;99810;;;10.2;79.8
76987;BME280;65922;50.086;8.598;2023-01-13T05:00:49;99820;;;10.1;80.2
76987;BME280;65922;50.086;8.598;2023-01-13T05:01:49;99810;;;10;80.8
76987;BME280;65922;50.086;8.598;2023-01-13T05:02:49;99810;;;10;81.1
76987;BME280;65922;50.086;8.598;2023-01-13T05:03:49;99820;;;9.9;81.8
76987;BME280;65922;50.086;8.598;2023-01-13T05:04:49;99820;;;9.8;82.8
76987;BME280;65922;50.086;8.598;2023-01-13T05:05:49;99830;;;9.6;84
76987;BME280;65922;50.086;8.598;2023-01-13T05:06:49;99830;;;9.6;84.3
76987;BME280;65922;50.086;8.598;2023-01-13T05:07:49;99830;;;9.5;85.5
76987;BME280;65922;50.086;8.598;2023-01-13T05:08:49;99840;;;9.4;86.5
76987;BME280;65922;50.086;8.598;2023-01-13T05:09:49;99830;;;9.5;86.1
76987;BME280;65922;50.086;8.598;2023-01-13T05:10:49;99840;;;9.4;86.5
76987;BME280;65922;50.086;8.598;2023-01-13T05:11:49;99820;;;9.3;87.2
76987;BME280;65922;50.086;8.598;2023-01-13T05:12:49;99840;;;9.4;86.7
76987;BME280;65922;50.086;8.598;2023-01-13T05:13:49;99830;;;9.3;86.9
76987;BME280;65922;50.086;8.598;2023-01-13T05:14:49;99840;;;9.3;87.3
76987;BME280;65922;50.086;8.598;2023-01-13T05:15:49;99840;;;9.3;87.8
76987;BME280;65922;50.086;8.598;2023-01-13T05:16:49;99840;;;9.3;87.8
76987;BME280;65922;50.086;8.598;2023-01-13T05:17:49;99840;;;9.3;87.5
76987;BME280;65922;50.086;8.598;2023-01-13T05:18:49;99850;;;9.3;87.5
76987;BME280;65922;50.086;8.598;2023-01-13T05:19:49;99850;;;9.2;87.9
76987;BME280;65922;50.086;8.598;2023-01-13T05:20:49;99850;;;9.4;87
76987;BME280;65922;50.086;8.598;2023-01-13T05:21:49;99850;;;9.4;87.1
76987;BME280;65922;50.086;8.598;2023-01-13T05:22:49;99860;;;9.3;87.5
76987;BME280;65922;50.086;8.598;2023-01-13T05:23:49;99860;;;9.3;87.5
76987;BME280;65922;50.086;8.598;2023-01-13T05:24:49;99860;;;9.3;87.6
76987;BME280;65922;50.086;8.598;2023-01-13T05:25:49;99870;;;9.3;87.3
76987;BME280;65922;50.086;8.598;2023-01-13T05:26:49;99900;;;9.3;87.8
76987;BME280;65922;50.086;8.598;2023-01-13T05:27:49;99930;;;9.2;88.7
76987;BME280;65922;50.086;8.598;2023-01-13T05:29:50;99940;;;8.7;90.6
76987;BME280;65922;50.086;8.598;2023-01-13T05:30:57;99930;;;8.5;89.4
76987;BME280;65922;50.086;8.598;2023-01-13T05:31:50;99940;;;8.4;88.9
76987;BME280;65922;50.086;8.598;2023-01-13T05:32:50;99940;;;8.2;89.1
76987;BME280;65922;50.086;8.598;2023-01-13T05:33:50;99930;;;8.2;88.8
76987;BME280;65922;50.086;8.598;2023-01-13T05:34:50;99940;;;8.1;89.3
76987;BME280;65922;50.086;8.598;2023-01-13T05:35:50;99940;;;8;89.8
76987;BME280;65922;50.086;8.598;2023-01-13T05:36:50;99930;;;7.9;90
76987;BME280;65922;50.086;8.598;2023-01-13T05:37:50;99930;;;7.9;89.7
76987;BME280;65922;50.086;8.598;2023-01-13T05:38:50;99930;;;7.8;90.2
76987;BME280;65922;50.086;8.598;2023-01-13T05:39:50;99940;;;7.7;90.6
76987;BME280;65922;50.086;8.598;2023-01-13T05:40:50;99940;;;7.7;91
76987;BME280;65922;50.086;8.598;2023-01-13T05:41:50;99960;;;7.7;91.2
76987;BME280;65922;50.086;8.598;2023-01-13T05:42:59;99950;;;7.6;91.4
76987;BME280;65922;50.086;8.598;2023-01-13T05:43:50;99960;;;7.6;91.8
76987;BME280;65922;50.086;8.598;2023-01-13T05:44:50;99970;;;7.6;92.1
76987;BME280;65922;50.086;8.598;2023-01-13T05:45:51;99970;;;7.5;92.5
76987;BME280;65922;50.086;8.598;2023-01-13T05:46:50;99980;;;7.5;92.7